createdAt,value
2023-04-03T00:00:05.630Z,25.64
2023-04-03T00:00:15.638Z,25.64
2023-04-03T00:00:25.642Z,25.64
2023-04-03T00:00:35.940Z,25.65
2023-04-03T00:00:45.803Z,25.64
2023-04-03T00:00:55.818Z,25.64
2023-04-03T00:01:05.824Z,25.65
2023-04-03T00:01:15.879Z,25.64
2023-04-03T00:01:25.886Z,25.64
2023-04-03T00:01:35.896Z,25.64
2023-04-03T00:01:45.908Z,25.64
2023-04-03T00:01:55.984Z,25.64
2023-04-03T00:02:06.062Z,25.65
2023-04-03T00:02:16.223Z,25.64
2023-04-03T00:02:26.438Z,25.64
2023-04-03T00:02:36.538Z,25.65
2023-04-03T00:02:46.649Z,25.64
2023-04-03T00:02:56.903Z,25.64
2023-04-03T00:03:06.968Z,25.64
2023-04-03T00:03:17.021Z,25.64
2023-04-03T00:03:27.001Z,25.65
2023-04-03T00:03:37.014Z,25.65
2023-04-03T00:03:47.039Z,25.65
2023-04-03T00:03:57.070Z,25.65
2023-04-03T00:04:07.136Z,25.66
2023-04-03T00:04:17.115Z,25.65
2023-04-03T00:04:27.217Z,25.66
2023-04-03T00:04:37.182Z,25.66
2023-04-03T00:04:47.209Z,25.65
2023-04-03T00:04:57.294Z,25.65
2023-04-03T00:05:07.294Z,25.65
2023-04-03T00:05:17.313Z,25.66
2023-04-03T00:05:27.323Z,25.65
2023-04-03T00:05:37.313Z,25.66
2023-04-03T00:05:47.313Z,25.66
2023-04-03T00:05:57.323Z,25.66
2023-04-03T00:06:07.328Z,25.66
2023-04-03T00:06:17.336Z,25.66
2023-04-03T00:06:27.346Z,25.66
2023-04-03T00:06:37.349Z,25.66
2023-04-03T00:06:47.361Z,25.66
2023-04-03T00:06:57.377Z,25.66
2023-04-03T00:07:07.388Z,25.66
2023-04-03T00:07:17.387Z,25.67
2023-04-03T00:07:27.404Z,25.67
2023-04-03T00:07:37.421Z,25.67
2023-04-03T00:07:47.424Z,25.67
2023-04-03T00:07:57.423Z,25.67
2023-04-03T00:08:07.437Z,25.66
2023-04-03T00:08:17.454Z,25.67
2023-04-03T00:08:27.457Z,25.67
2023-04-03T00:08:37.473Z,25.67
2023-04-03T00:08:47.487Z,25.67
2023-04-03T00:08:57.500Z,25.67
2023-04-03T00:09:09.295Z,25.67
2023-04-03T00:09:17.542Z,25.65
2023-04-03T00:09:27.551Z,25.65
2023-04-03T00:09:37.567Z,25.65
2023-04-03T00:09:47.572Z,25.65
2023-04-03T00:09:57.705Z,25.66
2023-04-03T00:10:07.708Z,25.67
2023-04-03T00:10:17.711Z,25.66
2023-04-03T00:10:27.712Z,25.67
2023-04-03T00:10:38.326Z,25.67
2023-04-03T00:10:47.891Z,25.67
2023-04-03T00:10:58.041Z,25.67
2023-04-03T00:11:08.024Z,25.67
2023-04-03T00:11:18.036Z,25.68
2023-04-03T00:11:28.041Z,25.68
2023-04-03T00:11:38.055Z,25.68
2023-04-03T00:11:48.052Z,25.68
2023-04-03T00:11:58.339Z,25.68
2023-04-03T00:12:08.346Z,25.67
2023-04-03T00:12:18.343Z,25.67
2023-04-03T00:12:28.342Z,25.66
2023-04-03T00:12:38.357Z,25.68
2023-04-03T00:12:48.395Z,25.68
2023-04-03T00:12:58.401Z,25.68
2023-04-03T00:13:08.397Z,25.67
2023-04-03T00:13:18.519Z,25.67
2023-04-03T00:13:28.624Z,25.67
2023-04-03T00:13:38.851Z,25.68
2023-04-03T00:13:48.842Z,25.67
2023-04-03T00:13:58.845Z,25.67
2023-04-03T00:14:08.845Z,25.68
2023-04-03T00:14:18.864Z,25.69
2023-04-03T00:14:28.855Z,25.68
2023-04-03T00:14:38.860Z,25.68
2023-04-03T00:14:48.881Z,25.68
2023-04-03T00:14:59.010Z,25.68
2023-04-03T00:15:09.009Z,25.68
2023-04-03T00:15:19.270Z,25.68
2023-04-03T00:15:29.376Z,25.68
2023-04-03T00:15:39.394Z,25.68
2023-04-03T00:15:49.651Z,25.67
2023-04-03T00:15:59.771Z,25.67
2023-04-03T00:16:09.792Z,25.67
2023-04-03T00:16:20.159Z,25.68
2023-04-03T00:16:30.115Z,25.68
2023-04-03T00:16:40.137Z,25.68
2023-04-03T00:16:50.179Z,25.68
2023-04-03T00:17:00.297Z,25.68
2023-04-03T00:17:10.321Z,25.68
2023-04-03T00:17:20.252Z,25.68
2023-04-03T00:17:30.287Z,25.68
2023-04-03T00:17:40.287Z,25.69
2023-04-03T00:17:50.311Z,25.68
2023-04-03T00:18:00.321Z,25.69
2023-04-03T00:18:10.324Z,25.69
2023-04-03T00:18:20.320Z,25.70
2023-04-03T00:18:30.320Z,25.70
2023-04-03T00:18:40.454Z,25.69
2023-04-03T00:18:50.446Z,25.69
2023-04-03T00:19:00.501Z,25.69
2023-04-03T00:19:10.767Z,25.70
2023-04-03T00:19:20.765Z,25.69
2023-04-03T00:19:30.764Z,25.70
2023-04-03T00:19:40.772Z,25.71
2023-04-03T00:19:50.781Z,25.71
2023-04-03T00:20:00.813Z,25.71
2023-04-03T00:20:10.821Z,25.70
2023-04-03T00:20:20.940Z,25.70
2023-04-03T00:20:30.954Z,25.71
2023-04-03T00:20:40.943Z,25.71
2023-04-03T00:20:51.243Z,25.71
2023-04-03T00:21:01.245Z,25.70
2023-04-03T00:21:11.255Z,25.71
2023-04-03T00:21:21.274Z,25.71
2023-04-03T00:21:31.275Z,25.70
2023-04-03T00:21:41.291Z,25.71
2023-04-03T00:21:51.292Z,25.71
2023-04-03T00:22:01.299Z,25.70
2023-04-03T00:22:11.314Z,25.71
2023-04-03T00:22:21.331Z,25.71
2023-04-03T00:22:31.330Z,25.71
2023-04-03T00:22:41.341Z,25.70
2023-04-03T00:22:51.375Z,25.70
2023-04-03T00:23:01.367Z,25.70
2023-04-03T00:23:11.382Z,25.70
2023-04-03T00:23:21.396Z,25.70
2023-04-03T00:23:31.393Z,25.71
2023-04-03T00:23:41.404Z,25.70
2023-04-03T00:23:51.413Z,25.70
2023-04-03T00:24:01.534Z,25.71
2023-04-03T00:24:11.527Z,25.71
2023-04-03T00:24:21.656Z,25.72
2023-04-03T00:24:31.666Z,25.72
2023-04-03T00:24:41.672Z,25.72
2023-04-03T00:24:51.822Z,25.72
2023-04-03T00:25:01.837Z,25.73
2023-04-03T00:25:11.834Z,25.73
2023-04-03T00:25:22.221Z,25.73
2023-04-03T00:25:32.228Z,25.73
2023-04-03T00:25:42.354Z,25.73
2023-04-03T00:25:52.639Z,25.74
2023-04-03T00:26:02.652Z,25.74
2023-04-03T00:26:12.656Z,25.73
2023-04-03T00:26:22.650Z,25.74
2023-04-03T00:26:32.649Z,25.74
2023-04-03T00:26:42.664Z,25.74
2023-04-03T00:26:52.675Z,25.74
2023-04-03T00:27:02.670Z,25.74
2023-04-03T00:27:12.673Z,25.74
2023-04-03T00:27:22.686Z,25.75
2023-04-03T00:27:32.694Z,25.75
2023-04-03T00:27:42.709Z,25.75
2023-04-03T00:27:52.756Z,25.73
2023-04-03T00:28:02.739Z,25.74
2023-04-03T00:28:12.752Z,25.74
2023-04-03T00:28:22.879Z,25.74
2023-04-03T00:28:32.886Z,25.73
2023-04-03T00:28:43.166Z,25.74
2023-04-03T00:28:53.177Z,25.74
2023-04-03T00:29:03.186Z,25.75
2023-04-03T00:29:13.196Z,25.75
2023-04-03T00:29:23.250Z,25.75
2023-04-03T00:29:33.249Z,25.75
2023-04-03T00:29:43.259Z,25.75
2023-04-03T00:29:53.285Z,25.75
2023-04-03T00:30:03.320Z,25.75
2023-04-03T00:30:13.309Z,25.75
2023-04-03T00:30:23.704Z,25.75
2023-04-03T00:30:33.752Z,25.75
2023-04-03T00:30:43.788Z,25.75
2023-04-03T00:30:53.846Z,25.76
2023-04-03T00:31:03.916Z,25.75
2023-04-03T00:31:13.966Z,25.75
2023-04-03T00:31:24.089Z,25.76
2023-04-03T00:31:34.163Z,25.75
2023-04-03T00:31:44.185Z,25.76
2023-04-03T00:31:54.211Z,25.76
2023-04-03T00:32:04.473Z,25.76
2023-04-03T00:32:14.482Z,25.76
2023-04-03T00:32:24.537Z,25.76
2023-04-03T00:32:34.569Z,25.77
2023-04-03T00:32:44.638Z,25.76
2023-04-03T00:32:54.770Z,25.76
2023-04-03T00:33:04.748Z,25.76
2023-04-03T00:33:14.775Z,25.76
2023-04-03T00:33:24.775Z,25.76
2023-04-03T00:33:34.786Z,25.77
2023-04-03T00:33:45.040Z,25.76
2023-04-03T00:33:55.046Z,25.77
2023-04-03T00:34:05.041Z,25.77
2023-04-03T00:34:15.051Z,25.77
2023-04-03T00:34:25.062Z,25.77
2023-04-03T00:34:35.064Z,25.77
2023-04-03T00:34:45.078Z,25.76
2023-04-03T00:34:55.080Z,25.76
2023-04-03T00:35:05.124Z,25.76
2023-04-03T00:35:15.125Z,25.76
2023-04-03T00:35:25.515Z,25.76
2023-04-03T00:35:35.585Z,25.76
2023-04-03T00:35:45.745Z,25.76
2023-04-03T00:35:55.644Z,25.76
2023-04-03T00:36:05.802Z,25.76
2023-04-03T00:36:15.895Z,25.75
2023-04-03T00:36:25.858Z,25.75
2023-04-03T00:36:36.014Z,25.76
2023-04-03T00:36:46.029Z,25.75
2023-04-03T00:36:56.199Z,25.76
2023-04-03T00:37:06.403Z,25.76
2023-04-03T00:37:16.388Z,25.76
2023-04-03T00:37:26.381Z,25.76
2023-04-03T00:37:36.397Z,25.77
2023-04-03T00:37:46.408Z,25.77
2023-04-03T00:37:56.410Z,25.78
2023-04-03T00:38:06.418Z,25.77
2023-04-03T00:38:16.448Z,25.78
2023-04-03T00:38:26.461Z,25.78
2023-04-03T00:38:36.458Z,25.78
2023-04-03T00:38:46.457Z,25.78
2023-04-03T00:38:56.487Z,25.78
2023-04-03T00:39:06.483Z,25.79
2023-04-03T00:39:16.489Z,25.78
2023-04-03T00:39:26.500Z,25.79
2023-04-03T00:39:36.511Z,25.79
2023-04-03T00:39:46.523Z,25.79
2023-04-03T00:39:56.535Z,25.79
2023-04-03T00:40:06.539Z,25.78
2023-04-03T00:40:16.551Z,25.80
2023-04-03T00:40:26.568Z,25.79
2023-04-03T00:40:36.769Z,25.79
2023-04-03T00:40:46.652Z,25.80
2023-04-03T00:40:56.657Z,25.79
2023-04-03T00:41:06.693Z,25.79
2023-04-03T00:41:16.677Z,25.79
2023-04-03T00:41:26.694Z,25.80
2023-04-03T00:41:36.716Z,25.80
2023-04-03T00:41:46.741Z,25.80
2023-04-03T00:41:56.744Z,25.80
2023-04-03T00:42:06.762Z,25.80
2023-04-03T00:42:16.765Z,25.80
2023-04-03T00:42:26.795Z,25.81
2023-04-03T00:42:36.796Z,25.81
2023-04-03T00:42:46.808Z,25.81
2023-04-03T00:42:56.829Z,25.81
2023-04-03T00:43:06.823Z,25.81
2023-04-03T00:43:16.828Z,25.81
2023-04-03T00:43:26.834Z,25.82
2023-04-03T00:43:36.857Z,25.81
2023-04-03T00:43:46.979Z,25.82
2023-04-03T00:43:56.999Z,25.82
2023-04-03T00:44:07.029Z,25.81
2023-04-03T00:44:17.027Z,25.82
2023-04-03T00:44:27.037Z,25.82
2023-04-03T00:44:37.310Z,25.83
2023-04-03T00:44:47.350Z,25.81
2023-04-03T00:44:57.377Z,25.82
2023-04-03T00:45:07.385Z,25.82
2023-04-03T00:45:17.403Z,25.82
2023-04-03T00:45:27.433Z,25.81
2023-04-03T00:45:37.430Z,25.82
2023-04-03T00:45:47.429Z,25.82
2023-04-03T00:45:57.606Z,25.82
2023-04-03T00:46:07.712Z,25.82
2023-04-03T00:46:17.890Z,25.82
2023-04-03T00:46:27.942Z,25.82
2023-04-03T00:46:38.037Z,25.82
2023-04-03T00:46:48.042Z,25.82
2023-04-03T00:46:58.060Z,25.82
2023-04-03T00:47:08.102Z,25.82
2023-04-03T00:47:18.105Z,25.82
2023-04-03T00:47:28.126Z,25.82
2023-04-03T00:47:38.186Z,25.83
2023-04-03T00:47:48.260Z,25.82
2023-04-03T00:47:58.356Z,25.82
2023-04-03T00:48:08.404Z,25.83
2023-04-03T00:48:18.412Z,25.82
2023-04-03T00:48:28.400Z,25.82
2023-04-03T00:48:38.431Z,25.82
2023-04-03T00:48:48.424Z,25.82
2023-04-03T00:48:58.558Z,25.83
2023-04-03T00:49:08.824Z,25.83
2023-04-03T00:49:18.837Z,25.83
2023-04-03T00:49:28.838Z,25.83
2023-04-03T00:49:38.846Z,25.83
2023-04-03T00:49:48.875Z,25.83
2023-04-03T00:49:58.856Z,25.84
2023-04-03T00:50:08.983Z,25.83
2023-04-03T00:50:18.981Z,25.84
2023-04-03T00:50:28.994Z,25.84
2023-04-03T00:50:39.364Z,25.83
2023-04-03T00:50:49.234Z,25.83
2023-04-03T00:50:59.239Z,25.83
2023-04-03T00:51:09.257Z,25.83
2023-04-03T00:51:19.275Z,25.82
2023-04-03T00:51:29.326Z,25.82
2023-04-03T00:51:39.333Z,25.81
2023-04-03T00:51:49.341Z,25.82
2023-04-03T00:51:59.482Z,25.83
2023-04-03T00:52:09.504Z,25.83
2023-04-03T00:52:19.533Z,25.83
2023-04-03T00:52:29.533Z,25.84
2023-04-03T00:52:39.670Z,25.84
2023-04-03T00:52:49.678Z,25.83
2023-04-03T00:52:59.693Z,25.84
2023-04-03T00:53:09.696Z,25.84
2023-04-03T00:53:19.811Z,25.84
2023-04-03T00:53:29.819Z,25.85
2023-04-03T00:53:39.969Z,25.84
2023-04-03T00:53:49.961Z,25.85
2023-04-03T00:53:59.971Z,25.85
2023-04-03T00:54:09.986Z,25.85
2023-04-03T00:54:20.006Z,25.85
2023-04-03T00:54:30.000Z,25.85
2023-04-03T00:54:40.006Z,25.85
2023-04-03T00:54:50.122Z,25.85
2023-04-03T00:55:00.153Z,25.86
2023-04-03T00:55:10.140Z,25.85
2023-04-03T00:55:20.423Z,25.85
2023-04-03T00:55:30.415Z,25.85
2023-04-03T00:55:40.434Z,25.84
2023-04-03T00:55:50.432Z,25.84
2023-04-03T00:56:00.456Z,25.85
2023-04-03T00:56:10.484Z,25.84
2023-04-03T00:56:20.484Z,25.85
2023-04-03T00:56:30.475Z,25.85
2023-04-03T00:56:40.491Z,25.85
2023-04-03T00:56:50.534Z,25.85
2023-04-03T00:57:00.557Z,25.86
2023-04-03T00:57:10.626Z,25.85
2023-04-03T00:57:20.702Z,25.85
2023-04-03T00:57:30.791Z,25.84
2023-04-03T00:57:40.731Z,25.85
2023-04-03T00:57:50.736Z,25.84
2023-04-03T00:58:00.871Z,25.84
2023-04-03T00:58:11.144Z,25.85
2023-04-03T00:58:21.272Z,25.85
2023-04-03T00:58:31.288Z,25.85
2023-04-03T00:58:41.545Z,25.85
2023-04-03T00:58:51.563Z,25.86
2023-04-03T00:59:01.563Z,25.85
2023-04-03T00:59:11.574Z,25.85
2023-04-03T00:59:21.588Z,25.85
2023-04-03T00:59:31.609Z,25.86
2023-04-03T00:59:41.596Z,25.86
2023-04-03T00:59:51.619Z,25.86
2023-04-03T01:00:01.627Z,25.86
2023-04-03T01:00:11.639Z,25.87
2023-04-03T01:00:21.645Z,25.86
2023-04-03T01:00:31.678Z,25.86
2023-04-03T01:00:41.671Z,25.86
2023-04-03T01:00:51.676Z,25.86
2023-04-03T01:01:01.687Z,25.86
2023-04-03T01:01:11.712Z,25.87
2023-04-03T01:01:21.723Z,25.86
2023-04-03T01:01:31.789Z,25.87
2023-04-03T01:01:41.816Z,25.87
2023-04-03T01:01:51.874Z,25.87
2023-04-03T01:02:01.945Z,25.86
2023-04-03T01:02:11.942Z,25.85
2023-04-03T01:02:22.088Z,25.86
2023-04-03T01:02:32.150Z,25.85
2023-04-03T01:02:42.374Z,25.86
2023-04-03T01:02:52.404Z,25.86
2023-04-03T01:03:02.490Z,25.86
2023-04-03T01:03:12.507Z,25.86
2023-04-03T01:03:22.514Z,25.87
2023-04-03T01:03:32.531Z,25.86
2023-04-03T01:03:42.545Z,25.86
2023-04-03T01:03:52.678Z,25.86
2023-04-03T01:04:02.615Z,25.86
2023-04-03T01:04:12.664Z,25.87
2023-04-03T01:04:22.670Z,25.86
2023-04-03T01:04:32.705Z,25.87
2023-04-03T01:04:42.848Z,25.87
2023-04-03T01:04:52.757Z,25.87
2023-04-03T01:05:02.764Z,25.87
2023-04-03T01:05:12.784Z,25.88
2023-04-03T01:05:22.785Z,25.88
2023-04-03T01:05:32.788Z,25.88
2023-04-03T01:05:42.810Z,25.88
2023-04-03T01:05:52.810Z,25.88
2023-04-03T01:06:02.820Z,25.88
2023-04-03T01:06:12.825Z,25.88
2023-04-03T01:06:22.841Z,25.88
2023-04-03T01:06:32.844Z,25.89
2023-04-03T01:06:42.849Z,25.89
2023-04-03T01:06:52.897Z,25.88
2023-04-03T01:07:02.902Z,25.88
2023-04-03T01:07:12.906Z,25.89
2023-04-03T01:07:22.930Z,25.89
2023-04-03T01:07:32.933Z,25.89
2023-04-03T01:07:43.060Z,25.88
2023-04-03T01:07:53.425Z,25.88
2023-04-03T01:08:03.444Z,25.88
2023-04-03T01:08:13.448Z,25.88
2023-04-03T01:08:23.453Z,25.88
2023-04-03T01:08:33.465Z,25.89
2023-04-03T01:08:43.586Z,25.88
2023-04-03T01:08:53.595Z,25.88
2023-04-03T01:09:03.609Z,25.88
2023-04-03T01:09:13.627Z,25.88
2023-04-03T01:09:23.630Z,25.88
2023-04-03T01:09:33.893Z,25.88
2023-04-03T01:09:43.902Z,25.88
2023-04-03T01:09:53.912Z,25.88
2023-04-03T01:10:03.935Z,25.88
2023-04-03T01:10:13.934Z,25.87
2023-04-03T01:10:23.938Z,25.88
2023-04-03T01:10:34.036Z,25.87
2023-04-03T01:10:44.086Z,25.87
2023-04-03T01:10:54.076Z,25.87
2023-04-03T01:11:04.089Z,25.88
2023-04-03T01:11:14.127Z,25.87
2023-04-03T01:11:24.136Z,25.88
2023-04-03T01:11:34.145Z,25.87
2023-04-03T01:11:44.259Z,25.87
2023-04-03T01:11:54.285Z,25.87
2023-04-03T01:12:04.287Z,25.87
2023-04-03T01:12:14.291Z,25.86
2023-04-03T01:12:24.544Z,25.86
2023-04-03T01:12:34.560Z,25.86
2023-04-03T01:12:46.712Z,25.86
2023-04-03T01:12:54.676Z,25.84
2023-04-03T01:13:04.795Z,25.85
2023-04-03T01:13:15.055Z,25.86
2023-04-03T01:13:25.081Z,25.85
2023-04-03T01:13:35.111Z,25.85
2023-04-03T01:13:45.114Z,25.86
2023-04-03T01:13:55.117Z,25.86
2023-04-03T01:14:05.130Z,25.86
2023-04-03T01:14:15.136Z,25.86
2023-04-03T01:14:25.149Z,25.86
2023-04-03T01:14:35.156Z,25.86
2023-04-03T01:14:45.173Z,25.86
2023-04-03T01:14:55.173Z,25.85
2023-04-03T01:15:05.184Z,25.86
2023-04-03T01:15:15.190Z,25.85
2023-04-03T01:15:25.191Z,25.85
2023-04-03T01:15:35.189Z,25.86
2023-04-03T01:15:45.327Z,25.86
2023-04-03T01:15:55.417Z,25.85
2023-04-03T01:16:05.780Z,25.85
2023-04-03T01:16:15.713Z,25.85
2023-04-03T01:16:25.815Z,25.84
2023-04-03T01:16:35.749Z,25.85
2023-04-03T01:16:45.817Z,25.86
2023-04-03T01:16:55.843Z,25.86
2023-04-03T01:17:05.839Z,25.86
2023-04-03T01:17:15.846Z,25.86
2023-04-03T01:17:25.938Z,25.86
2023-04-03T01:17:35.971Z,25.87
2023-04-03T01:17:46.046Z,25.86
2023-04-03T01:17:56.064Z,25.86
2023-04-03T01:18:06.117Z,25.86
2023-04-03T01:18:16.109Z,25.86
2023-04-03T01:18:26.135Z,25.86
2023-04-03T01:18:36.161Z,25.86
2023-04-03T01:18:46.149Z,25.87
2023-04-03T01:18:56.153Z,25.86
2023-04-03T01:19:06.163Z,25.86
2023-04-03T01:19:16.173Z,25.86
2023-04-03T01:19:26.209Z,25.86
2023-04-03T01:19:36.219Z,25.86
2023-04-03T01:19:46.233Z,25.86
2023-04-03T01:19:56.238Z,25.85
2023-04-03T01:20:06.249Z,25.86
2023-04-03T01:20:16.258Z,25.86
2023-04-03T01:20:26.270Z,25.86
2023-04-03T01:20:36.604Z,25.86
2023-04-03T01:20:46.314Z,25.84
2023-04-03T01:20:56.321Z,25.84
2023-04-03T01:21:06.322Z,25.85
2023-04-03T01:21:16.331Z,25.85
2023-04-03T01:21:26.346Z,25.85
2023-04-03T01:21:36.359Z,25.85
2023-04-03T01:21:46.392Z,25.85
2023-04-03T01:21:56.393Z,25.85
2023-04-03T01:22:06.416Z,25.84
2023-04-03T01:22:16.424Z,25.85
2023-04-03T01:22:26.428Z,25.84
2023-04-03T01:22:36.458Z,25.84
2023-04-03T01:22:46.456Z,25.83
2023-04-03T01:22:56.460Z,25.83
2023-04-03T01:23:06.856Z,25.84
2023-04-03T01:23:16.863Z,25.84
2023-04-03T01:23:26.882Z,25.83
2023-04-03T01:23:36.957Z,25.82
2023-04-03T01:23:46.975Z,25.82
2023-04-03T01:23:56.982Z,25.82
2023-04-03T01:24:07.105Z,25.82
2023-04-03T01:24:17.108Z,25.82
2023-04-03T01:24:27.112Z,25.83
2023-04-03T01:24:37.132Z,25.83
2023-04-03T01:24:47.432Z,25.82
2023-04-03T01:24:57.444Z,25.82
2023-04-03T01:25:07.454Z,25.84
2023-04-03T01:25:17.486Z,25.83
2023-04-03T01:25:27.517Z,25.82
2023-04-03T01:25:37.517Z,25.83
2023-04-03T01:25:47.540Z,25.82
2023-04-03T01:25:57.581Z,25.83
2023-04-03T01:26:07.570Z,25.83
2023-04-03T01:26:17.605Z,25.82
2023-04-03T01:26:27.608Z,25.82
2023-04-03T01:26:37.611Z,25.81
2023-04-03T01:26:47.632Z,25.82
2023-04-03T01:26:57.633Z,25.82
2023-04-03T01:27:07.643Z,25.82
2023-04-03T01:27:17.670Z,25.81
2023-04-03T01:27:27.653Z,25.81
2023-04-03T01:27:37.683Z,25.81
2023-04-03T01:27:47.692Z,25.82
2023-04-03T01:27:57.694Z,25.81
2023-04-03T01:28:07.705Z,25.82
2023-04-03T01:28:17.724Z,25.83
2023-04-03T01:28:27.729Z,25.83
2023-04-03T01:28:37.734Z,25.83
2023-04-03T01:28:47.740Z,25.82
2023-04-03T01:28:57.762Z,25.81
2023-04-03T01:29:07.748Z,25.82
2023-04-03T01:29:17.799Z,25.82
2023-04-03T01:29:27.792Z,25.81
2023-04-03T01:29:37.917Z,25.81
2023-04-03T01:29:47.932Z,25.80
2023-04-03T01:29:58.193Z,25.80
2023-04-03T01:30:08.204Z,25.80
2023-04-03T01:30:18.229Z,25.80
2023-04-03T01:30:28.222Z,25.79
2023-04-03T01:30:38.492Z,25.79
2023-04-03T01:30:48.253Z,25.79
2023-04-03T01:30:58.275Z,25.78
2023-04-03T01:31:08.334Z,25.79
2023-04-03T01:31:18.361Z,25.78
2023-04-03T01:31:28.495Z,25.79
2023-04-03T01:31:38.865Z,25.78
2023-04-03T01:31:48.827Z,25.78
2023-04-03T01:31:58.886Z,25.77
2023-04-03T01:32:08.872Z,25.77
2023-04-03T01:32:18.903Z,25.77
2023-04-03T01:32:28.922Z,25.77
2023-04-03T01:32:38.953Z,25.77
2023-04-03T01:32:49.095Z,25.76
2023-04-03T01:32:59.131Z,25.76
2023-04-03T01:33:09.200Z,25.75
2023-04-03T01:33:19.476Z,25.75
2023-04-03T01:33:29.498Z,25.74
2023-04-03T01:33:39.499Z,25.74
2023-04-03T01:33:49.501Z,25.75
2023-04-03T01:33:59.631Z,25.75
2023-04-03T01:34:09.673Z,25.74
2023-04-03T01:34:19.689Z,25.74
2023-04-03T01:34:29.742Z,25.75
2023-04-03T01:34:39.741Z,25.75
2023-04-03T01:34:49.762Z,25.74
2023-04-03T01:35:00.035Z,25.75
2023-04-03T01:35:10.053Z,25.75
2023-04-03T01:35:20.116Z,25.74
2023-04-03T01:35:30.164Z,25.74
2023-04-03T01:35:40.172Z,25.73
2023-04-03T01:35:50.175Z,25.73
2023-04-03T01:36:00.247Z,25.73
2023-04-03T01:36:10.314Z,25.73
2023-04-03T01:36:20.365Z,25.74
2023-04-03T01:36:30.370Z,25.74
2023-04-03T01:36:40.371Z,25.73
2023-04-03T01:36:50.381Z,25.72
2023-04-03T01:37:00.420Z,25.72
2023-04-03T01:37:10.426Z,25.73
2023-04-03T01:37:20.447Z,25.72
2023-04-03T01:37:30.460Z,25.72
2023-04-03T01:37:40.461Z,25.72
2023-04-03T01:37:50.461Z,25.71
2023-04-03T01:38:00.596Z,25.71
2023-04-03T01:38:10.602Z,25.71
2023-04-03T01:38:20.611Z,25.72
2023-04-03T01:38:30.647Z,25.71
2023-04-03T01:38:40.656Z,25.71
2023-04-03T01:38:50.660Z,25.70
2023-04-03T01:39:00.927Z,25.71
2023-04-03T01:39:10.937Z,25.71
2023-04-03T01:39:20.931Z,25.70
2023-04-03T01:39:30.940Z,25.70
2023-04-03T01:39:40.954Z,25.69
2023-04-03T01:39:50.957Z,25.69
2023-04-03T01:40:01.058Z,25.69
2023-04-03T01:40:11.062Z,25.69
2023-04-03T01:40:21.073Z,25.69
2023-04-03T01:40:31.079Z,25.69
2023-04-03T01:40:41.083Z,25.69
2023-04-03T01:40:51.097Z,25.68
2023-04-03T01:41:01.107Z,25.68
2023-04-03T01:41:11.104Z,25.67
2023-04-03T01:41:21.259Z,25.67
2023-04-03T01:41:31.274Z,25.67
2023-04-03T01:41:41.276Z,25.67
2023-04-03T01:41:51.552Z,25.66
2023-04-03T01:42:01.552Z,25.66
2023-04-03T01:42:11.573Z,25.66
2023-04-03T01:42:21.570Z,25.66
2023-04-03T01:42:31.581Z,25.66
2023-04-03T01:42:41.704Z,25.66
2023-04-03T01:42:51.707Z,25.65
2023-04-03T01:43:01.721Z,25.66
2023-04-03T01:43:11.736Z,25.65
2023-04-03T01:43:21.749Z,25.64
2023-04-03T01:43:32.006Z,25.64
2023-04-03T01:43:42.015Z,25.64
2023-04-03T01:43:52.044Z,25.64
2023-04-03T01:44:02.042Z,25.64
2023-04-03T01:44:12.058Z,25.65
2023-04-03T01:44:22.071Z,25.64
2023-04-03T01:44:32.109Z,25.64
2023-04-03T01:44:42.114Z,25.64
2023-04-03T01:44:52.127Z,25.64
2023-04-03T01:45:02.263Z,25.64
2023-04-03T01:45:12.503Z,25.64
2023-04-03T01:45:22.568Z,25.64
2023-04-03T01:45:32.614Z,25.63
2023-04-03T01:45:42.664Z,25.62
2023-04-03T01:45:52.760Z,25.62
2023-04-03T01:46:02.806Z,25.61
2023-04-03T01:46:12.906Z,25.62
2023-04-03T01:46:22.932Z,25.62
2023-04-03T01:46:33.028Z,25.61
2023-04-03T01:46:43.037Z,25.62
2023-04-03T01:46:53.171Z,25.60
2023-04-03T01:47:03.172Z,25.60
2023-04-03T01:47:13.181Z,25.60
2023-04-03T01:47:23.233Z,25.60
2023-04-03T01:47:33.303Z,25.59
2023-04-03T01:47:43.328Z,25.60
2023-04-03T01:47:53.343Z,25.59
2023-04-03T01:48:03.365Z,25.59
2023-04-03T01:48:13.377Z,25.59
2023-04-03T01:48:23.413Z,25.59
2023-04-03T01:48:33.400Z,25.59
2023-04-03T01:48:43.423Z,25.60
2023-04-03T01:48:53.439Z,25.60
2023-04-03T01:49:03.450Z,25.60
2023-04-03T01:49:13.470Z,25.58
2023-04-03T01:49:23.487Z,25.59
2023-04-03T01:49:33.499Z,25.59
2023-04-03T01:49:43.504Z,25.59
2023-04-03T01:49:53.514Z,25.59
2023-04-03T01:50:03.646Z,25.58
2023-04-03T01:50:13.650Z,25.58
2023-04-03T01:50:23.652Z,25.58
2023-04-03T01:50:33.708Z,25.58
2023-04-03T01:50:43.709Z,25.57
2023-04-03T01:50:53.983Z,25.57
2023-04-03T01:51:03.984Z,25.58
2023-04-03T01:51:13.999Z,25.56
2023-04-03T01:51:24.026Z,25.56
2023-04-03T01:51:34.071Z,25.56
2023-04-03T01:51:44.093Z,25.56
2023-04-03T01:51:54.098Z,25.56
2023-04-03T01:52:04.120Z,25.55
2023-04-03T01:52:14.121Z,25.56
2023-04-03T01:52:24.146Z,25.55
2023-04-03T01:52:34.134Z,25.56
2023-04-03T01:52:44.266Z,25.55
2023-04-03T01:52:54.268Z,25.56
2023-04-03T01:53:04.268Z,25.55
2023-04-03T01:53:14.296Z,25.55
2023-04-03T01:53:24.301Z,25.55
2023-04-03T01:53:34.310Z,25.54
2023-04-03T01:53:44.574Z,25.54
2023-04-03T01:53:54.574Z,25.54
2023-04-03T01:54:04.576Z,25.54
2023-04-03T01:54:14.575Z,25.54
2023-04-03T01:54:24.635Z,25.53
2023-04-03T01:54:34.652Z,25.54
2023-04-03T01:54:44.652Z,25.54
2023-04-03T01:54:54.670Z,25.54
2023-04-03T01:55:04.663Z,25.53
2023-04-03T01:55:14.668Z,25.54
2023-04-03T01:55:24.671Z,25.54
2023-04-03T01:55:34.680Z,25.53
2023-04-03T01:55:44.693Z,25.54
2023-04-03T01:55:54.696Z,25.54
2023-04-03T01:56:04.721Z,25.53
2023-04-03T01:56:14.725Z,25.53
2023-04-03T01:56:24.756Z,25.53
2023-04-03T01:56:34.739Z,25.51
2023-04-03T01:56:44.748Z,25.50
2023-04-03T01:56:54.821Z,25.51
2023-04-03T01:57:04.825Z,25.50
2023-04-03T01:57:14.899Z,25.50
2023-04-03T01:57:24.990Z,25.51
2023-04-03T01:57:35.030Z,25.49
2023-04-03T01:57:44.991Z,25.50
2023-04-03T01:57:54.999Z,25.49
2023-04-03T01:58:05.015Z,25.50
2023-04-03T01:58:15.017Z,25.50
2023-04-03T01:58:25.024Z,25.49
2023-04-03T01:58:35.035Z,25.48
2023-04-03T01:58:45.049Z,25.49
2023-04-03T01:58:55.064Z,25.48
2023-04-03T01:59:05.076Z,25.49
2023-04-03T01:59:15.078Z,25.49
2023-04-03T01:59:25.203Z,25.48
2023-04-03T01:59:35.211Z,25.48
2023-04-03T01:59:45.223Z,25.47
2023-04-03T01:59:55.216Z,25.48
2023-04-03T02:00:05.500Z,25.48
2023-04-03T02:00:15.546Z,25.48
2023-04-03T02:00:25.541Z,25.48
2023-04-03T02:00:35.842Z,25.47
2023-04-03T02:00:45.607Z,25.47
2023-04-03T02:00:55.619Z,25.47
2023-04-03T02:01:05.657Z,25.47
2023-04-03T02:01:15.685Z,25.47
2023-04-03T02:01:25.744Z,25.47
2023-04-03T02:01:35.843Z,25.47
2023-04-03T02:01:45.864Z,25.46
2023-04-03T02:01:55.879Z,25.46
2023-04-03T02:02:05.911Z,25.47
2023-04-03T02:02:15.894Z,25.46
2023-04-03T02:02:26.164Z,25.47
2023-04-03T02:02:36.228Z,25.46
2023-04-03T02:02:46.257Z,25.46
2023-04-03T02:02:56.278Z,25.46
2023-04-03T02:03:06.322Z,25.46
2023-04-03T02:03:16.340Z,25.46
2023-04-03T02:03:26.341Z,25.46
2023-04-03T02:03:36.455Z,25.46
2023-04-03T02:03:46.504Z,25.46
2023-04-03T02:03:56.547Z,25.45
2023-04-03T02:04:06.882Z,25.45
2023-04-03T02:04:16.933Z,25.45
2023-04-03T02:04:27.043Z,25.44
2023-04-03T02:04:37.034Z,25.44
2023-04-03T02:04:47.030Z,25.43
2023-04-03T02:04:57.031Z,25.44
2023-04-03T02:05:07.160Z,25.43
2023-04-03T02:05:17.186Z,25.44
2023-04-03T02:05:27.210Z,25.44
2023-04-03T02:05:37.256Z,25.43
2023-04-03T02:05:47.518Z,25.43
2023-04-03T02:05:57.511Z,25.43
2023-04-03T02:06:07.518Z,25.44
2023-04-03T02:06:17.517Z,25.43
2023-04-03T02:06:27.537Z,25.43
2023-04-03T02:06:37.603Z,25.43
2023-04-03T02:06:47.619Z,25.43
2023-04-03T02:06:57.688Z,25.42
2023-04-03T02:07:07.718Z,25.41
2023-04-03T02:07:17.718Z,25.41
2023-04-03T02:07:27.729Z,25.41
2023-04-03T02:07:37.744Z,25.41
2023-04-03T02:07:47.751Z,25.41
2023-04-03T02:07:57.760Z,25.40
2023-04-03T02:08:07.763Z,25.41
2023-04-03T02:08:17.767Z,25.41
2023-04-03T02:08:27.777Z,25.41
2023-04-03T02:08:37.774Z,25.41
2023-04-03T02:08:47.794Z,25.41
2023-04-03T02:08:57.792Z,25.41
2023-04-03T02:09:07.802Z,25.40
2023-04-03T02:09:17.804Z,25.39